Cheadle, United Kingdom
Current Conditions -  °F | °C
As of 1:20 PM on Sunday 23 Nov 2014 (Local Time) from EGCC Reporting Station
Scattered Clouds Scattered Clouds  
Wind Chill: 45°   Ceiling: Unl
Heat Index: 48°   Visibility: 6mi
Dew Point: 43°   Wind: 8mph
Humidity: 82%   Direction: 320°NW
Pressure: 30.03"   Gusts: NA
Location:  53.39°N, 2.22°W
Report Text: EGCC 231320Z 32007KT 200V340 9999 FEW016 SCT021 09/06 Q1017 NOSIG
Loading
Personal Weather Stations






























Interactive Weather Map New forecast layout! Learn more

10-Day Weather Forecast

Advertisements
Track Severe Weather on mobile